Terminal Aerodrome Forecast
Issued by NWS

Home | Current Version | Previous Version | Text Only | Print | Product List | Glossary On
Versions: 1 2 3 4 5 6 7 8 9 10 11 12 13 14 15 16 17 18 19
000
FTUS43 KGRB 271725
TAFRHI
TAF
KRHI 271725Z 2718/2818 22006KT P6SM SCT060 SCT200
     FM281000 18006KT P6SM BKN200 WS020/21035KT
     FM281200 18008KT P6SM OVC080
     FM281400 17009G14KT P6SM TSRA OVC045CB
      TEMPO 2814/2816 2SM +TSRA OVC023CB
     FM281600 16010G20KT 3SM +TSRA OVC015CB=

USA.gov is the U.S. government's official web portal to all federal, state and local government web resources and services.